KDFI/DFI METAR and TAF weather

Enter ICAO airport designator
Station Type Date Time Source
KDFI METAR 2020/03/29 10:53 UTC NOAA

KDFI 291053Z AUTO 20010KT 10SM CLR 17/14 A2953 RMK AO2 SLP997 T01670144


Station Type Date Time Source
KDFI Decoded METAR 2020/03/29 10:53 UTC NOAA

DEFIANCE MEMORIAL AIRPORT, OH, United States (KDFI) 41-20N 84-26W 219M
Mar 29, 2020 - 06:53 AM EDT / 2020.03.29 1053 UTC
Wind: from the SSW (200 degrees) at 12 MPH (10 KT):0
Visibility: 10 mile(s):0
Sky conditions: clear
Temperature: 62.1 F (16.7 C)
Dew Point: 57.9 F (14.4 C)
Relative Humidity: 86%
Pressure (altimeter): 29.53 in. Hg (1000 hPa)
ob: KDFI 291053Z AUTO 20010KT 10SM CLR 17/14 A2953 RMK AO2 SLP997 T01670144
cycle: 11

Station Type Date Time Source
KDFI TAF UTC NOAA

Error!

Example: see airport list